createdAt,value
2018-02-20T00:00:12.658Z,3.30
2018-02-20T00:02:40.957Z,3.20
2018-02-20T00:05:08.489Z,3.20
2018-02-20T00:07:36.017Z,3.20
2018-02-20T00:10:03.586Z,3.10
2018-02-20T00:12:31.110Z,3.00
2018-02-20T00:14:58.840Z,3.00
2018-02-20T00:17:27.177Z,3.10
2018-02-20T00:19:54.976Z,3.00
2018-02-20T00:22:22.769Z,3.10
2018-02-20T00:24:50.280Z,3.10
2018-02-20T00:27:18.517Z,3.00
2018-02-20T00:29:46.387Z,2.90
2018-02-20T00:32:13.944Z,2.90
2018-02-20T00:34:41.462Z,2.90
2018-02-20T00:37:09.750Z,2.80
2018-02-20T00:39:38.669Z,2.90
2018-02-20T00:42:06.802Z,2.80
2018-02-20T00:44:35.191Z,2.90
2018-02-20T00:47:03.501Z,2.80
2018-02-20T00:49:31.372Z,2.80
2018-02-20T00:51:58.903Z,2.80
2018-02-20T00:54:27.305Z,2.80
2018-02-20T00:56:54.830Z,2.70
2018-02-20T00:59:28.056Z,2.70
2018-02-20T01:01:55.565Z,2.70
2018-02-20T01:04:26.902Z,2.60
2018-02-20T01:06:54.745Z,2.60
2018-02-20T01:09:22.439Z,2.60
2018-02-20T01:11:49.947Z,2.50
2018-02-20T01:14:25.592Z,2.40
2018-02-20T01:16:54.812Z,2.40
2018-02-20T01:19:22.382Z,2.40
2018-02-20T01:21:54.137Z,2.30
2018-02-20T01:24:21.701Z,2.30
2018-02-20T01:26:49.860Z,2.20
2018-02-20T01:29:17.502Z,2.20
2018-02-20T01:31:45.776Z,2.10
2018-02-20T01:34:14.070Z,2.00
2018-02-20T01:36:41.634Z,2.00
2018-02-20T01:39:09.693Z,2.00
2018-02-20T01:41:37.577Z,2.00
2018-02-20T01:44:05.527Z,2.00
2018-02-20T01:46:33.057Z,2.00
2018-02-20T01:49:00.573Z,2.00
2018-02-20T01:51:28.125Z,1.90
2018-02-20T01:53:56.145Z,2.00
2018-02-20T01:56:23.677Z,2.00
2018-02-20T01:58:53.068Z,1.90
2018-02-20T02:01:20.928Z,1.80
2018-02-20T02:03:48.503Z,1.80
2018-02-20T02:06:16.115Z,1.80
2018-02-20T02:08:44.517Z,1.70
2018-02-20T02:11:12.040Z,1.70
2018-02-20T02:13:39.569Z,1.70
2018-02-20T02:16:07.091Z,1.60
2018-02-20T02:18:34.749Z,1.60
2018-02-20T02:21:02.962Z,1.60
2018-02-20T02:23:30.517Z,1.40
2018-02-20T02:25:58.062Z,1.40
2018-02-20T02:28:26.009Z,1.50
2018-02-20T02:30:53.546Z,1.50
2018-02-20T02:33:25.448Z,1.60
2018-02-20T02:35:52.981Z,1.60
2018-02-20T02:38:21.283Z,1.60
2018-02-20T02:40:49.685Z,1.60
2018-02-20T02:43:17.320Z,1.60
2018-02-20T02:45:45.432Z,1.60
2018-02-20T02:48:15.025Z,1.60
2018-02-20T02:50:42.689Z,1.60
2018-02-20T02:53:12.819Z,1.50
2018-02-20T02:55:41.246Z,1.40
2018-02-20T02:58:09.551Z,1.40
2018-02-20T03:00:37.843Z,1.40
2018-02-20T03:03:05.846Z,1.50
2018-02-20T03:05:33.360Z,1.40
2018-02-20T03:08:01.637Z,1.40
2018-02-20T03:10:29.169Z,1.50
2018-02-20T03:13:02.043Z,1.40
2018-02-20T03:15:30.366Z,1.30
2018-02-20T03:17:58.764Z,1.30
2018-02-20T03:20:28.045Z,1.30
2018-02-20T03:22:56.419Z,1.40
2018-02-20T03:25:24.796Z,1.40
2018-02-20T03:27:53.112Z,1.30
2018-02-20T03:30:21.602Z,1.20
2018-02-20T03:32:49.696Z,1.30
2018-02-20T03:35:17.980Z,1.30
2018-02-20T03:37:46.593Z,1.30
2018-02-20T03:40:18.642Z,1.30
2018-02-20T03:42:49.191Z,1.30
2018-02-20T03:45:16.847Z,1.30
2018-02-20T03:47:48.372Z,1.30
2018-02-20T03:50:17.594Z,1.20
2018-02-20T03:52:45.096Z,1.20
2018-02-20T04:08:18.535Z,0.10
2018-02-20T04:10:46.099Z,0.10
2018-02-20T04:13:13.663Z,0.30
2018-02-20T04:15:41.185Z,0.50
2018-02-20T04:18:09.501Z,0.70
2018-02-20T04:20:37.855Z,0.70
2018-02-20T04:23:06.281Z,0.80
2018-02-20T04:25:45.585Z,0.80
2018-02-20T04:28:13.717Z,0.70
2018-02-20T04:30:41.258Z,0.70
2018-02-20T04:33:08.894Z,0.80
2018-02-20T04:35:36.817Z,0.80
2018-02-20T04:38:04.785Z,0.80
2018-02-20T04:40:32.633Z,0.80
2018-02-20T04:43:00.656Z,0.80
2018-02-20T04:45:28.165Z,0.80
2018-02-20T04:47:59.873Z,0.80
2018-02-20T04:50:31.446Z,0.80
2018-02-20T04:52:58.960Z,0.80
2018-02-20T04:55:27.245Z,0.70
2018-02-20T04:57:59.792Z,0.70
2018-02-20T05:00:27.344Z,0.70
2018-02-20T05:02:55.220Z,0.70
2018-02-20T05:05:23.146Z,0.80
2018-02-20T05:07:50.664Z,0.80
2018-02-20T05:10:18.960Z,0.90
2018-02-20T05:12:51.635Z,0.90
2018-02-20T05:15:27.220Z,0.90
2018-02-20T05:17:54.741Z,0.90
2018-02-20T05:20:23.014Z,0.90
2018-02-20T05:22:51.942Z,0.90
2018-02-20T05:25:19.542Z,0.80
2018-02-20T05:27:48.853Z,0.80
2018-02-20T05:30:30.537Z,0.70
2018-02-20T05:32:58.101Z,0.70
2018-02-20T05:35:25.626Z,0.70
2018-02-20T05:37:53.140Z,0.70
2018-02-20T05:40:22.474Z,0.70
2018-02-20T05:42:53.903Z,0.70
2018-02-20T05:45:22.465Z,0.40
2018-02-20T05:47:54.447Z,0.30
2018-02-20T05:50:23.076Z,0.50
2018-02-20T05:52:51.660Z,0.50
2018-02-20T05:55:19.181Z,0.50
2018-02-20T05:57:47.081Z,0.50
2018-02-20T06:00:15.979Z,0.60
2018-02-20T06:02:47.947Z,0.60
2018-02-20T06:05:15.600Z,0.50
2018-02-20T06:07:43.256Z,0.50
2018-02-20T06:10:15.089Z,0.60
2018-02-20T06:12:43.024Z,0.50
2018-02-20T06:15:13.757Z,0.60
2018-02-20T06:17:45.854Z,0.60
2018-02-20T06:20:13.413Z,0.50
2018-02-20T06:22:41.689Z,0.40
2018-02-20T06:25:09.944Z,0.40
2018-02-20T06:27:37.480Z,0.40
2018-02-20T06:30:05.048Z,0.30
2018-02-20T06:32:32.556Z,0.40
2018-02-20T06:35:00.798Z,0.30
2018-02-20T06:37:32.436Z,0.30
2018-02-20T06:40:00.023Z,0.30
2018-02-20T06:42:36.141Z,0.40
2018-02-20T06:45:09.573Z,0.40
2018-02-20T06:47:41.586Z,0.40
2018-02-20T06:50:09.962Z,0.50
2018-02-20T06:52:38.183Z,0.40
2018-02-20T06:55:05.708Z,0.40
2018-02-20T06:57:33.855Z,0.40
2018-02-20T07:00:01.393Z,0.40
2018-02-20T07:02:29.805Z,0.40
2018-02-20T07:04:57.751Z,0.40
2018-02-20T07:07:30.222Z,0.60
2018-02-20T07:09:58.508Z,0.70
2018-02-20T07:12:30.940Z,0.90
2018-02-20T07:14:59.057Z,0.90
2018-02-20T07:17:27.461Z,1.20
2018-02-20T07:19:55.017Z,1.60
2018-02-20T07:22:26.880Z,2.10
2018-02-20T07:24:54.448Z,3.00
2018-02-20T07:27:22.041Z,3.90
2018-02-20T07:29:51.098Z,6.00
2018-02-20T07:32:18.664Z,6.00
2018-02-20T07:34:46.217Z,7.10
2018-02-20T07:37:14.521Z,8.00
2018-02-20T07:39:42.089Z,8.90
2018-02-20T07:42:09.677Z,9.70
2018-02-20T07:44:39.221Z,11.00
2018-02-20T07:47:06.884Z,10.90
2018-02-20T07:49:34.651Z,11.70
2018-02-20T07:52:02.193Z,12.30
2018-02-20T07:54:29.722Z,12.90
2018-02-20T07:56:57.258Z,13.50
2018-02-20T07:59:24.772Z,13.90
2018-02-20T08:01:52.335Z,14.10
2018-02-20T08:04:23.989Z,13.80
2018-02-20T08:06:51.508Z,13.80
2018-02-20T08:09:19.420Z,13.90
2018-02-20T08:11:47.856Z,14.20
2018-02-20T08:14:15.470Z,14.40
2018-02-20T08:29:48.045Z,14.80
2018-02-20T08:45:20.591Z,15.30
2018-02-20T08:47:48.128Z,16.20
2018-02-20T08:50:16.431Z,17.30
2018-02-20T08:52:44.030Z,17.30
2018-02-20T08:55:12.173Z,17.70
2018-02-20T08:57:39.695Z,18.00
2018-02-20T09:00:08.006Z,18.10
2018-02-20T09:02:35.474Z,17.90
2018-02-20T09:05:03.010Z,18.20
2018-02-20T09:07:31.823Z,18.20
2018-02-20T09:09:59.345Z,18.20
2018-02-20T09:12:31.959Z,18.30
2018-02-20T09:14:59.504Z,18.20
2018-02-20T09:17:27.017Z,18.50
2018-02-20T09:19:55.459Z,17.30
2018-02-20T09:22:22.996Z,16.70
2018-02-20T09:24:51.305Z,17.10
2018-02-20T09:27:18.829Z,17.10
2018-02-20T09:29:47.112Z,16.50
2018-02-20T09:32:14.654Z,16.50
2018-02-20T09:34:43.791Z,16.80
2018-02-20T09:37:11.334Z,16.80
2018-02-20T09:39:39.063Z,17.70
2018-02-20T09:42:08.357Z,18.40
2018-02-20T09:44:36.249Z,18.40
2018-02-20T09:47:04.597Z,16.90
2018-02-20T09:49:32.676Z,16.90
2018-02-20T09:52:01.020Z,16.40
2018-02-20T09:54:28.543Z,16.40
2018-02-20T09:56:56.957Z,16.50
2018-02-20T09:59:24.480Z,16.50
2018-02-20T10:01:53.848Z,16.20
2018-02-20T10:04:26.359Z,16.30
2018-02-20T10:06:54.644Z,16.90
2018-02-20T10:09:31.238Z,17.00
2018-02-20T10:11:59.849Z,16.90
2018-02-20T10:14:27.394Z,17.00
2018-02-20T10:16:54.925Z,17.20
2018-02-20T10:19:22.489Z,17.20
2018-02-20T10:21:50.527Z,16.90
2018-02-20T10:24:18.188Z,16.40
2018-02-20T10:26:47.695Z,16.30
2018-02-20T10:29:15.222Z,16.20
2018-02-20T10:31:42.809Z,16.20
2018-02-20T10:34:10.425Z,16.20
2018-02-20T10:36:38.557Z,16.00
2018-02-20T10:39:06.854Z,15.00
2018-02-20T10:41:38.351Z,14.90
2018-02-20T10:44:05.889Z,13.80
2018-02-20T10:46:33.416Z,14.10
2018-02-20T10:49:01.717Z,14.60
2018-02-20T10:51:29.302Z,14.60
2018-02-20T10:53:56.841Z,13.90
2018-02-20T10:56:24.418Z,13.90
2018-02-20T10:58:52.062Z,13.90
2018-02-20T11:01:19.625Z,14.20
2018-02-20T11:03:47.225Z,14.00
2018-02-20T11:06:14.788Z,14.40
2018-02-20T11:08:43.257Z,14.10
2018-02-20T11:11:10.793Z,14.10
2018-02-20T11:13:38.305Z,14.30
2018-02-20T11:16:06.619Z,14.70
2018-02-20T11:18:34.137Z,14.70
2018-02-20T11:21:01.750Z,14.70
2018-02-20T11:25:21.771Z,14.80
2018-02-20T11:27:49.301Z,15.10
2018-02-20T11:30:16.852Z,15.30
2018-02-20T11:32:44.388Z,15.10
2018-02-20T11:35:12.934Z,15.00
2018-02-20T11:37:40.469Z,14.90
2018-02-20T11:40:08.167Z,14.60
2018-02-20T11:42:35.804Z,15.20
2018-02-20T11:45:03.390Z,15.60
2018-02-20T11:47:31.122Z,15.40
2018-02-20T11:49:58.663Z,15.60
2018-02-20T11:52:26.213Z,16.20
2018-02-20T11:54:53.841Z,16.70
2018-02-20T11:57:22.157Z,17.10
2018-02-20T11:59:49.677Z,17.20
2018-02-20T12:02:17.293Z,16.60
2018-02-20T12:04:45.306Z,16.40
2018-02-20T12:07:13.574Z,16.30
2018-02-20T12:09:41.489Z,16.00
2018-02-20T12:12:09.158Z,16.40
2018-02-20T12:14:37.056Z,16.90
2018-02-20T12:17:05.364Z,16.70
2018-02-20T12:19:32.902Z,16.30
2018-02-20T12:22:05.247Z,16.20
2018-02-20T12:24:37.547Z,16.50
2018-02-20T12:27:05.180Z,16.30
2018-02-20T12:29:32.750Z,16.40
2018-02-20T12:32:00.419Z,16.10
2018-02-20T12:34:28.055Z,16.10
2018-02-20T12:36:55.586Z,16.40
2018-02-20T12:39:24.281Z,16.20
2018-02-20T12:41:52.685Z,16.50
2018-02-20T12:44:20.263Z,16.50
2018-02-20T12:46:51.694Z,16.10
2018-02-20T12:49:19.262Z,15.70
2018-02-20T12:51:46.813Z,14.80
2018-02-20T12:54:14.377Z,13.40
2018-02-20T12:56:41.943Z,12.40
2018-02-20T12:59:09.510Z,11.90
2018-02-20T13:01:37.175Z,11.60
2018-02-20T13:04:08.505Z,10.90
2018-02-20T13:06:36.064Z,10.30
2018-02-20T13:09:03.637Z,10.00
2018-02-20T13:11:31.373Z,10.20
2018-02-20T13:13:59.670Z,11.00
2018-02-20T13:16:27.194Z,10.90
2018-02-20T13:18:55.988Z,10.50
2018-02-20T13:21:24.304Z,9.80
2018-02-20T13:23:53.161Z,9.80
2018-02-20T13:26:25.389Z,9.10
2018-02-20T13:28:53.028Z,9.10
2018-02-20T13:31:20.553Z,8.90
2018-02-20T13:33:48.957Z,8.60
2018-02-20T13:36:16.517Z,8.60
2018-02-20T13:38:47.837Z,8.50
2018-02-20T13:41:16.151Z,8.40
2018-02-20T13:43:49.274Z,8.40
2018-02-20T13:46:16.807Z,8.20
2018-02-20T13:48:45.482Z,7.90
2018-02-20T13:51:13.058Z,7.90
2018-02-20T13:53:40.589Z,7.90
2018-02-20T14:09:13.221Z,8.10
2018-02-20T14:11:41.490Z,8.20
2018-02-20T14:14:13.171Z,8.30
2018-02-20T14:16:41.469Z,8.30
2018-02-20T14:19:09.762Z,8.30
2018-02-20T14:21:37.302Z,8.30
2018-02-20T14:24:04.826Z,8.80
2018-02-20T14:26:32.357Z,9.70
2018-02-20T14:29:00.624Z,10.40
2018-02-20T14:31:28.910Z,10.80
2018-02-20T14:33:56.664Z,10.60
2018-02-20T14:36:24.472Z,10.00
2018-02-20T14:38:52.001Z,9.50
2018-02-20T14:41:20.269Z,9.80
2018-02-20T14:43:47.820Z,10.00
2018-02-20T14:46:15.357Z,10.20
2018-02-20T14:48:42.885Z,10.20
2018-02-20T14:51:10.509Z,9.70
2018-02-20T14:53:38.265Z,9.20
2018-02-20T14:56:05.801Z,8.80
2018-02-20T14:58:33.481Z,8.50
2018-02-20T15:01:01.005Z,8.20
2018-02-20T15:03:29.418Z,7.80
2018-02-20T15:05:57.818Z,7.80
2018-02-20T15:08:25.969Z,7.70
2018-02-20T15:10:53.852Z,7.70
2018-02-20T15:26:27.183Z,7.50
2018-02-20T15:28:54.843Z,6.30
2018-02-20T15:33:58.327Z,6.30
2018-02-20T15:36:27.070Z,6.40
2018-02-20T15:38:55.641Z,6.70
2018-02-20T15:41:24.804Z,6.60
2018-02-20T15:43:53.022Z,6.50
2018-02-20T15:46:26.181Z,6.60
2018-02-20T15:48:54.119Z,6.60
2018-02-20T15:51:21.653Z,6.60
2018-02-20T15:53:49.953Z,6.60
2018-02-20T15:56:18.440Z,6.40
2018-02-20T15:58:45.974Z,6.30
